Time;durP1;ratioP1;P1;durP2;ratioP2;P2;SDS_P1;SDS_P2;PMS_P1;PMS_P2;Temp;Humidity;BMP_temperature;BMP_pressure;BME280_temperature;BME280_humidity;BME280_pressure;Samples;Min_cycle;Max_cycle;Signal;HPM_P1;HPM_P2
2023/06/13 00:02:10;;;;;;;;;;;;;;;15.67;33.16;101081.13;105655;1296;75416;-85
2023/06/13 00:04:57;;;;;;;;;;;;;;;15.63;33.31;101083.17;105568;1298;67274;-85
2023/06/13 00:07:43;;;;;;;;;;;;;;;15.58;33.32;101088.89;105377;1299;217229;-85
2023/06/13 00:10:29;;;;;;;;;;;;;;;15.57;33.48;101093.98;105567;1296;60223;-86
2023/06/13 00:13:15;;;;;;;;;;;;;;;15.53;33.62;101094.58;105513;1297;59935;-85
2023/06/13 00:16:02;;;;;;;;;;;;;;;15.55;33.67;101098.86;105568;1296;74147;-85
2023/06/13 00:18:48;;;;;;;;;;;;;;;15.55;33.70;101097.14;105580;1298;66888;-85
2023/06/13 00:21:35;;;;;;;;;;;;;;;15.53;33.90;101098.75;105542;1298;71385;-85
2023/06/13 00:24:22;;;;;;;;;;;;;;;15.47;33.77;101102.92;105616;1296;60092;-85
2023/06/13 00:27:08;;;;;;;;;;;;;;;15.48;34.18;101102.36;105623;1297;60114;-85
2023/06/13 00:29:53;;;;;;;;;;;;;;;15.47;34.23;101115.41;105487;1298;75259;-85
2023/06/13 00:32:40;;;;;;;;;;;;;;;15.45;34.24;101125.39;105662;1297;67585;-85
2023/06/13 00:35:26;;;;;;;;;;;;;;;15.45;34.27;101130.94;105599;1297;72153;-85
2023/06/13 00:38:12;;;;;;;;;;;;;;;15.47;34.30;101132.64;105629;1297;59804;-85
2023/06/13 00:40:58;;;;;;;;;;;;;;;15.47;34.49;101117.34;105521;1297;60036;-85
2023/06/13 00:43:44;;;;;;;;;;;;;;;15.48;34.77;101098.72;105621;1296;75353;-85
2023/06/13 00:46:34;;;;;;;;;;;;;;;15.44;34.92;101085.81;105562;1297;67778;-86
2023/06/13 00:49:20;;;;;;;;;;;;;;;15.44;34.85;101081.81;105538;1297;71406;-86
2023/06/13 00:52:08;;;;;;;;;;;;;;;15.41;35.16;101080.16;105519;1296;60083;-86
2023/06/13 00:54:55;;;;;;;;;;;;;;;15.35;35.05;101079.48;105589;1296;60114;-85
2023/06/13 00:57:41;;;;;;;;;;;;;;;15.34;35.41;101074.27;105604;1298;74187;-85
2023/06/13 01:00:27;;;;;;;;;;;;;;;15.32;35.84;101079.89;105648;1295;68526;-85
2023/06/13 01:03:16;;;;;;;;;;;;;;;15.27;35.67;101076.58;105538;1296;71258;-86
2023/06/13 01:06:02;;;;;;;;;;;;;;;15.26;35.65;101078.66;105649;1297;60054;-85
2023/06/13 01:08:48;;;;;;;;;;;;;;;15.25;36.17;101083.57;105622;1297;60337;-85
2023/06/13 01:11:44;;;;;;;;;;;;;;;15.25;36.00;101092.25;105512;1297;75439;-85
2023/06/13 01:14:46;;;;;;;;;;;;;;;15.24;36.59;101099.55;105556;1297;68003;-85
2023/06/13 01:17:36;;;;;;;;;;;;;;;15.20;36.21;101090.65;105578;1297;71699;-85
2023/06/13 01:20:22;;;;;;;;;;;;;;;15.24;36.44;101092.45;105558;1297;59893;-85
2023/06/13 01:23:10;;;;;;;;;;;;;;;15.18;36.62;101084.45;105598;1296;59795;-85
2023/06/13 01:25:59;;;;;;;;;;;;;;;15.15;36.76;101086.25;105527;1297;75140;-85
2023/06/13 01:28:51;;;;;;;;;;;;;;;15.13;36.64;101080.23;105632;1297;67472;-85
2023/06/13 01:31:40;;;;;;;;;;;;;;;15.09;37.09;101078.27;105628;1297;71927;-85
2023/06/13 01:34:26;;;;;;;;;;;;;;;15.10;37.25;101077.73;105620;1297;61508;-85
2023/06/13 01:37:12;;;;;;;;;;;;;;;15.06;37.17;101076.30;105518;1297;59894;-85
2023/06/13 01:39:58;;;;;;;;;;;;;;;15.04;37.29;101081.55;105676;1297;75362;-86
2023/06/13 01:42:44;;;;;;;;;;;;;;;15.03;37.68;101079.67;105610;1297;68648;-86
2023/06/13 01:45:30;;;;;;;;;;;;;;;15.02;38.00;101087.19;105530;1298;72630;-85
2023/06/13 01:48:24;;;;;;;;;;;;;;;15.04;37.43;101094.58;105562;1296;59620;-86
2023/06/13 01:51:22;;;;;;;;;;;;;;;15.03;37.72;101093.91;105546;1297;59953;-85
2023/06/13 01:54:11;;;;;;;;;;;;;;;15.05;37.90;101087.96;105588;1297;74055;-85
2023/06/13 01:57:01;;;;;;;;;;;;;;;15.03;37.84;101087.15;105445;1299;67208;-85
2023/06/13 01:59:52;;;;;;;;;;;;;;;15.04;37.74;101088.16;105643;1296;71574;-85
2023/06/13 02:02:39;;;;;;;;;;;;;;;15.06;37.74;101088.45;105515;1298;60011;-85
2023/06/13 02:05:25;;;;;;;;;;;;;;;15.02;37.79;101087.85;105632;1296;60144;-85
2023/06/13 02:08:12;;;;;;;;;;;;;;;14.99;38.24;101084.29;105543;1297;74182;-85
2023/06/13 02:10:58;;;;;;;;;;;;;;;14.97;38.39;101084.53;105622;1296;68545;-85
2023/06/13 02:13:44;;;;;;;;;;;;;;;14.94;37.98;101078.88;105496;1297;71488;-86
2023/06/13 02:16:30;;;;;;;;;;;;;;;14.92;38.01;101076.50;105620;1300;59850;-86
2023/06/13 02:19:16;;;;;;;;;;;;;;;14.92;38.20;101077.38;105673;1296;59788;-85
2023/06/13 02:22:02;;;;;;;;;;;;;;;14.89;38.06;101077.79;105623;1297;75542;-85
2023/06/13 02:24:49;;;;;;;;;;;;;;;14.89;38.36;101077.08;105614;1297;67554;-85
2023/06/13 02:27:35;;;;;;;;;;;;;;;14.88;38.24;101077.65;105423;1297;71194;-86
2023/06/13 02:30:21;;;;;;;;;;;;;;;14.85;38.43;101071.98;105639;1297;59851;-85
2023/06/13 02:33:08;;;;;;;;;;;;;;;14.86;38.58;101079.42;105621;1296;60093;-85
2023/06/13 02:35:53;;;;;;;;;;;;;;;14.84;38.39;101089.38;105604;1297;74684;-86
2023/06/13 02:38:39;;;;;;;;;;;;;;;14.82;38.33;101083.54;105640;1297;67881;-85
2023/06/13 02:41:26;;;;;;;;;;;;;;;14.82;38.48;101083.54;105613;1297;70419;-85
2023/06/13 02:44:12;;;;;;;;;;;;;;;14.85;38.46;101082.91;105417;1298;59803;-85
2023/06/13 02:46:58;;;;;;;;;;;;;;;14.83;38.44;101084.36;105608;1297;60380;-85
2023/06/13 02:49:43;;;;;;;;;;;;;;;14.84;38.53;101093.01;105582;1297;75336;-86
2023/06/13 02:52:29;;;;;;;;;;;;;;;14.88;38.63;101097.95;105544;1297;68446;-85
2023/06/13 02:55:15;;;;;;;;;;;;;;;14.91;38.49;101096.83;105531;1296;73482;-85
2023/06/13 02:58:01;;;;;;;;;;;;;;;14.90;38.61;101096.52;105579;1297;60211;-85
2023/06/13 03:00:48;;;;;;;;;;;;;;;14.91;38.75;101098.39;105514;1297;59952;-85
2023/06/13 03:03:34;;;;;;;;;;;;;;;14.93;38.80;101101.99;105535;1297;75377;-85
2023/06/13 03:06:20;;;;;;;;;;;;;;;14.92;38.94;101105.67;105610;1297;67984;-85
2023/06/13 03:09:05;;;;;;;;;;;;;;;14.85;39.00;101099.92;105632;1297;71370;-85
2023/06/13 03:11:51;;;;;;;;;;;;;;;14.87;38.97;101101.10;105582;1297;59734;-85
2023/06/13 03:14:38;;;;;;;;;;;;;;;14.95;39.16;101097.61;105529;1297;59238;-85
2023/06/13 03:17:23;;;;;;;;;;;;;;;15.03;39.05;101093.04;105582;1297;74679;-85
2023/06/13 03:20:10;;;;;;;;;;;;;;;15.10;38.95;101093.17;105657;1297;68689;-85
2023/06/13 03:22:56;;;;;;;;;;;;;;;15.06;39.12;101095.02;105618;1297;71700;-85
2023/06/13 03:25:42;;;;;;;;;;;;;;;15.05;39.13;101092.30;105604;1297;60095;-85
2023/06/13 03:28:28;;;;;;;;;;;;;;;15.09;39.22;101094.59;105614;1296;59740;-85
2023/06/13 03:31:14;;;;;;;;;;;;;;;15.09;39.35;101099.27;105438;1300;75272;-85
2023/06/13 03:34:00;;;;;;;;;;;;;;;15.07;39.35;101099.69;105530;1297;67193;-85
2023/06/13 03:36:47;;;;;;;;;;;;;;;15.16;39.47;101098.75;105493;1296;72683;-85
2023/06/13 03:39:32;;;;;;;;;;;;;;;15.21;39.44;101104.15;105432;1297;59743;-85
2023/06/13 03:42:18;;;;;;;;;;;;;;;15.14;39.34;101102.96;105560;1297;59837;-86
2023/06/13 03:45:04;;;;;;;;;;;;;;;15.15;39.46;101102.24;105563;1297;75084;-85
2023/06/13 03:47:50;;;;;;;;;;;;;;;15.18;39.53;101108.05;105520;1297;68972;-86
2023/06/13 03:50:36;;;;;;;;;;;;;;;15.28;39.64;101109.88;105531;1297;71073;-86
2023/06/13 03:53:22;;;;;;;;;;;;;;;15.37;39.71;101108.77;105553;1297;60185;-86
2023/06/13 03:56:09;;;;;;;;;;;;;;;15.43;39.98;101108.23;105396;1297;203594;-86
2023/06/13 03:58:54;;;;;;;;;;;;;;;15.40;39.82;101109.38;105455;1296;75418;-86
2023/06/13 04:01:41;;;;;;;;;;;;;;;15.39;39.71;101111.13;105614;1297;69783;-86
2023/06/13 04:04:27;;;;;;;;;;;;;;;15.42;39.78;101113.50;105542;1296;71982;-85
2023/06/13 04:07:13;;;;;;;;;;;;;;;15.43;39.83;101115.53;105469;1296;59898;-86
2023/06/13 04:09:59;;;;;;;;;;;;;;;15.42;39.77;101120.95;105591;1296;60078;-85
2023/06/13 04:12:47;;;;;;;;;;;;;;;15.42;39.91;101115.91;105594;1297;75192;-85
2023/06/13 04:15:33;;;;;;;;;;;;;;;15.43;39.96;101116.07;105634;1297;67514;-85
2023/06/13 04:18:21;;;;;;;;;;;;;;;15.41;40.29;101116.46;105504;1297;72405;-85
2023/06/13 04:21:08;;;;;;;;;;;;;;;15.30;40.17;101112.95;105475;1296;60139;-85
2023/06/13 04:23:54;;;;;;;;;;;;;;;15.33;40.11;101117.21;105561;1297;59931;-85
2023/06/13 04:26:41;;;;;;;;;;;;;;;15.32;40.16;101120.53;105509;1297;74588;-85
2023/06/13 04:29:25;;;;;;;;;;;;;;;15.25;40.38;101122.12;105493;1297;68382;-85
2023/06/13 04:32:17;;;;;;;;;;;;;;;15.24;40.43;101118.48;105477;1297;71708;-85
2023/06/13 04:35:01;;;;;;;;;;;;;;;15.25;40.44;101116.73;105615;1297;59931;-85
2023/06/13 04:37:46;;;;;;;;;;;;;;;15.26;40.58;101121.23;105504;1298;60188;-86
2023/06/13 04:40:31;;;;;;;;;;;;;;;15.21;40.48;101120.81;105628;1297;74844;-86
2023/06/13 04:43:15;;;;;;;;;;;;;;;15.23;41.27;101119.38;105569;1296;69218;-86
2023/06/13 04:46:02;;;;;;;;;;;;;;;15.23;40.86;101119.55;105590;1297;72661;-86
2023/06/13 04:48:47;;;;;;;;;;;;;;;15.32;40.90;101124.88;105477;1297;59799;-86
2023/06/13 04:51:33;;;;;;;;;;;;;;;15.36;40.83;101124.94;105462;1298;60241;-86
2023/06/13 04:54:17;;;;;;;;;;;;;;;15.42;40.95;101128.23;105586;1297;75148;-86
2023/06/13 04:57:01;;;;;;;;;;;;;;;15.50;41.11;101124.05;105605;1297;68500;-86
2023/06/13 04:59:46;;;;;;;;;;;;;;;15.53;40.92;101123.09;105596;1297;71847;-86
2023/06/13 05:02:30;;;;;;;;;;;;;;;15.54;41.03;101120.27;105515;1297;61165;-86
2023/06/13 05:05:18;;;;;;;;;;;;;;;15.53;41.02;101118.91;105502;1298;59360;-86
2023/06/13 05:08:02;;;;;;;;;;;;;;;15.57;41.11;101114.98;105599;1297;75160;-86
2023/06/13 05:10:47;;;;;;;;;;;;;;;15.63;41.09;101119.85;105498;1297;68160;-86
2023/06/13 05:13:31;;;;;;;;;;;;;;;15.66;41.38;101117.68;105499;1299;72484;-86
2023/06/13 05:16:17;;;;;;;;;;;;;;;15.68;41.19;101113.63;105380;1297;60061;-86
2023/06/13 05:19:05;;;;;;;;;;;;;;;15.71;41.09;101114.76;105504;1297;59845;-86
2023/06/13 05:21:51;;;;;;;;;;;;;;;15.75;41.21;101118.45;105504;1297;74262;-86
2023/06/13 05:24:37;;;;;;;;;;;;;;;15.74;41.30;101118.31;105446;1296;67244;-86
2023/06/13 05:27:22;;;;;;;;;;;;;;;15.71;41.13;101118.56;105473;1300;71926;-86
2023/06/13 05:30:11;;;;;;;;;;;;;;;15.77;41.29;101113.36;105503;1296;60922;-86
2023/06/13 05:32:57;;;;;;;;;;;;;;;15.83;41.41;101112.31;105486;1297;60276;-86
2023/06/13 05:35:44;;;;;;;;;;;;;;;15.87;41.43;101116.36;105419;1297;76002;-87
2023/06/13 05:38:31;;;;;;;;;;;;;;;15.87;41.31;101117.04;105460;1297;67367;-86
2023/06/13 05:41:17;;;;;;;;;;;;;;;15.90;41.45;101118.36;105533;1298;72828;-86
2023/06/13 05:44:03;;;;;;;;;;;;;;;15.93;41.44;101121.56;105437;1297;60527;-87
2023/06/13 05:46:47;;;;;;;;;;;;;;;15.96;41.46;101125.13;105416;1298;61368;-86
2023/06/13 05:49:31;;;;;;;;;;;;;;;15.98;41.60;101130.81;105425;1297;74220;-86
2023/06/13 05:52:15;;;;;;;;;;;;;;;16.02;41.56;101134.88;105433;1300;68586;-86
2023/06/13 05:55:00;;;;;;;;;;;;;;;16.07;41.52;101136.96;105465;1298;73462;-86
2023/06/13 05:57:44;;;;;;;;;;;;;;;16.13;41.50;101136.74;105447;1297;60113;-86
2023/06/13 06:00:28;;;;;;;;;;;;;;;16.17;41.69;101134.52;105524;1297;60131;-87
2023/06/13 06:03:13;;;;;;;;;;;;;;;16.18;41.70;101136.08;105336;1298;73431;-86
2023/06/13 06:05:57;;;;;;;;;;;;;;;16.20;41.70;101127.31;105351;1303;67390;-86
2023/06/13 06:08:41;;;;;;;;;;;;;;;16.17;41.69;101129.33;105421;1297;72442;-86
2023/06/13 06:11:26;;;;;;;;;;;;;;;16.25;41.94;101125.28;105453;1299;60216;-87
2023/06/13 06:14:10;;;;;;;;;;;;;;;16.33;41.88;101127.80;105387;1298;59784;-86
2023/06/13 06:16:55;;;;;;;;;;;;;;;16.44;41.82;101130.41;105459;1297;74235;-86
2023/06/13 06:19:39;;;;;;;;;;;;;;;16.56;42.10;101137.66;105352;1298;68957;-86
2023/06/13 06:22:23;;;;;;;;;;;;;;;16.76;42.04;101134.74;105468;1298;73095;-86
2023/06/13 06:25:08;;;;;;;;;;;;;;;16.87;41.97;101136.98;105467;1297;60352;-86
2023/06/13 06:27:57;;;;;;;;;;;;;;;16.95;41.78;101138.48;105473;1298;60069;-86
2023/06/13 06:30:43;;;;;;;;;;;;;;;17.04;41.96;101139.20;105439;1297;74374;-86
2023/06/13 06:33:29;;;;;;;;;;;;;;;16.98;41.84;101141.32;105416;1300;67435;-86
2023/06/13 06:36:15;;;;;;;;;;;;;;;16.95;41.98;101142.64;105407;1299;71362;-86
2023/06/13 06:39:03;;;;;;;;;;;;;;;16.91;42.01;101140.88;105500;1297;60356;-86
2023/06/13 06:41:48;;;;;;;;;;;;;;;16.85;42.14;101142.96;105484;1298;60128;-86
2023/06/13 06:44:34;;;;;;;;;;;;;;;16.73;42.13;101146.52;105445;1297;74595;-86
2023/06/13 06:47:20;;;;;;;;;;;;;;;16.70;42.13;101147.15;105015;1297;526404;-85
2023/06/13 06:50:06;;;;;;;;;;;;;;;16.71;42.24;101144.30;105553;1298;71902;-86
2023/06/13 06:52:52;;;;;;;;;;;;;;;16.72;42.09;101147.41;105492;1300;60021;-86
2023/06/13 06:55:39;;;;;;;;;;;;;;;16.77;42.20;101150.05;105607;1297;59888;-86
2023/06/13 06:58:25;;;;;;;;;;;;;;;16.87;42.23;101147.95;105544;1298;74772;-86
2023/06/13 07:01:10;;;;;;;;;;;;;;;16.94;42.19;101147.77;105606;1297;67472;-86
2023/06/13 07:03:56;;;;;;;;;;;;;;;16.96;42.27;101146.29;105557;1298;71010;-86
2023/06/13 07:06:42;;;;;;;;;;;;;;;16.96;42.23;101141.23;105613;1300;59931;-86
2023/06/13 07:09:28;;;;;;;;;;;;;;;17.01;42.17;101137.04;105618;1299;59851;-86
2023/06/13 07:12:14;;;;;;;;;;;;;;;17.14;42.59;101136.58;105496;1298;75415;-86
2023/06/13 07:15:00;;;;;;;;;;;;;;;17.29;42.48;101136.55;105508;1299;67996;-86
2023/06/13 07:17:46;;;;;;;;;;;;;;;17.44;42.20;101136.70;105546;1298;71149;-86
2023/06/13 07:20:32;;;;;;;;;;;;;;;17.59;42.17;101131.65;105642;1299;59719;-86
2023/06/13 07:23:18;;;;;;;;;;;;;;;17.80;42.13;101127.74;105559;1300;60034;-86
2023/06/13 07:26:03;;;;;;;;;;;;;;;18.11;42.26;101130.91;105615;1297;75458;-86
2023/06/13 07:28:50;;;;;;;;;;;;;;;18.76;42.37;101131.02;105642;1296;67366;-86
2023/06/13 07:31:36;;;;;;;;;;;;;;;20.16;42.35;101129.44;105596;1300;72524;-86
2023/06/13 07:34:22;;;;;;;;;;;;;;;21.77;41.42;101133.52;105545;1297;59805;-86
2023/06/13 07:37:10;;;;;;;;;;;;;;;22.47;41.13;101129.59;105614;1299;59925;-86
2023/06/13 07:39:56;;;;;;;;;;;;;;;22.96;41.21;101135.14;105570;1297;75747;-87
2023/06/13 07:42:42;;;;;;;;;;;;;;;23.41;40.49;101123.94;105566;1297;68591;-86
2023/06/13 07:45:27;;;;;;;;;;;;;;;24.85;40.76;101127.23;105542;1299;73068;-87
2023/06/13 07:48:13;;;;;;;;;;;;;;;27.16;39.78;101132.86;105538;1299;59961;-87
2023/06/13 07:50:59;;;;;;;;;;;;;;;29.23;38.55;101128.88;105562;1298;59766;-86
2023/06/13 07:53:45;;;;;;;;;;;;;;;30.30;36.83;101132.70;105608;1297;74008;-87
2023/06/13 07:56:32;;;;;;;;;;;;;;;29.66;37.87;101135.95;105508;1301;67426;-87
2023/06/13 07:59:18;;;;;;;;;;;;;;;29.06;37.42;101135.16;105397;1297;71871;-87
2023/06/13 08:02:04;;;;;;;;;;;;;;;28.73;37.44;101136.70;105546;1297;59884;-87
2023/06/13 08:04:50;;;;;;;;;;;;;;;27.79;37.08;101130.24;105645;1297;59935;-87
2023/06/13 08:07:36;;;;;;;;;;;;;;;26.82;37.48;101132.38;105446;1296;74549;-87
2023/06/13 08:10:22;;;;;;;;;;;;;;;25.97;37.13;101136.59;105390;1302;67413;-87
2023/06/13 08:13:08;;;;;;;;;;;;;;;25.43;36.70;101133.90;105497;1296;71442;-87
2023/06/13 08:15:54;;;;;;;;;;;;;;;25.02;36.72;101131.67;105432;1297;59776;-88
2023/06/13 08:18:40;;;;;;;;;;;;;;;25.06;36.86;101133.15;105548;1296;59785;-89
2023/06/13 08:21:27;;;;;;;;;;;;;;;26.18;36.35;101130.79;105470;1301;75307;-89
2023/06/13 08:24:29;;;;;;;;;;;;;;;26.12;35.98;101129.67;105465;1297;67708;-88
2023/06/13 08:27:16;;;;;;;;;;;;;;;25.79;36.41;101131.52;105358;1303;71436;-89
2023/06/13 08:30:03;;;;;;;;;;;;;;;27.68;35.98;101123.36;105453;1299;59263;-90
2023/06/13 08:32:52;;;;;;;;;;;;;;;29.16;34.76;101133.02;105389;1298;60212;-89
2023/06/13 08:35:38;;;;;;;;;;;;;;;28.31;34.72;101128.82;105415;1298;74184;-89
2023/06/13 08:38:24;;;;;;;;;;;;;;;26.82;35.00;101134.36;105441;1298;67982;-89
2023/06/13 08:41:11;;;;;;;;;;;;;;;27.23;35.70;101129.92;105380;1297;73326;-89
2023/06/13 08:43:58;;;;;;;;;;;;;;;28.10;35.01;101124.38;105417;1298;59977;-89
2023/06/13 08:46:45;;;;;;;;;;;;;;;27.76;34.72;101126.98;105394;1298;59933;-89
2023/06/13 08:49:31;;;;;;;;;;;;;;;27.54;34.41;101129.92;105482;1298;74044;-89
2023/06/13 08:52:17;;;;;;;;;;;;;;;29.05;34.85;101132.50;105468;1300;68095;-87
2023/06/13 08:55:06;;;;;;;;;;;;;;;28.97;33.57;101131.67;105449;1298;71457;-88
2023/06/13 08:57:53;;;;;;;;;;;;;;;27.29;33.62;101136.33;105446;1298;59973;-87
2023/06/13 09:00:40;;;;;;;;;;;;;;;26.11;34.01;101135.90;105338;1297;60358;-87
2023/06/13 09:03:28;;;;;;;;;;;;;;;25.01;33.84;101130.65;105268;1300;75619;-87
2023/06/13 09:06:15;;;;;;;;;;;;;;;24.12;33.70;101130.59;105463;1298;68391;-86
2023/06/13 09:09:11;;;;;;;;;;;;;;;23.22;33.82;101132.70;105484;1298;72636;-89
2023/06/13 09:11:59;;;;;;;;;;;;;;;22.48;33.86;101130.38;105511;1298;60083;-88
2023/06/13 09:15:05;;;;;;;;;;;;;;;21.91;33.86;101131.52;105501;1297;60291;-89
2023/06/13 09:17:53;;;;;;;;;;;;;;;21.43;34.11;101131.50;105440;1299;75471;-88
2023/06/13 09:20:39;;;;;;;;;;;;;;;21.17;34.27;101128.64;105378;1300;67990;-89
2023/06/13 09:23:26;;;;;;;;;;;;;;;21.02;34.15;101126.95;105321;1299;72567;-88
2023/06/13 09:26:13;;;;;;;;;;;;;;;20.73;34.22;101125.81;105394;1298;59218;-88
2023/06/13 09:29:00;;;;;;;;;;;;;;;20.58;34.41;101124.11;105338;1300;59817;-89
2023/06/13 09:31:46;;;;;;;;;;;;;;;20.49;34.28;101125.41;105434;1297;74019;-88
2023/06/13 09:34:52;;;;;;;;;;;;;;;20.42;34.26;101125.58;105316;1301;68484;-88
2023/06/13 09:37:40;;;;;;;;;;;;;;;20.44;34.45;101119.21;105368;1299;72835;-88
2023/06/13 09:40:28;;;;;;;;;;;;;;;20.46;34.31;101117.85;105347;1301;59727;-88
2023/06/13 09:43:15;;;;;;;;;;;;;;;20.53;34.45;101117.36;105350;1300;60275;-89
2023/06/13 09:46:01;;;;;;;;;;;;;;;20.61;34.39;101115.73;105376;1299;74205;-88
2023/06/13 09:48:48;;;;;;;;;;;;;;;20.61;34.58;101113.98;105416;1298;67145;-88
2023/06/13 09:51:54;;;;;;;;;;;;;;;20.67;34.47;101112.45;105457;1298;73038;-89
2023/06/13 09:54:43;;;;;;;;;;;;;;;20.75;34.64;101113.63;105546;1297;60114;-88
2023/06/13 09:57:47;;;;;;;;;;;;;;;20.74;34.53;101115.24;105450;1297;59914;-88
2023/06/13 10:00:33;;;;;;;;;;;;;;;20.76;34.71;101121.64;105483;1300;75309;-88
2023/06/13 10:03:21;;;;;;;;;;;;;;;20.66;34.64;101123.19;105460;1296;68336;-88
2023/06/13 10:06:11;;;;;;;;;;;;;;;20.52;34.95;101123.88;105472;1297;71381;-89
2023/06/13 10:09:15;;;;;;;;;;;;;;;20.38;34.87;101125.42;105485;1295;61099;-89
2023/06/13 10:12:21;;;;;;;;;;;;;;;20.11;34.78;101121.69;105480;1298;60324;-87
2023/06/13 10:15:08;;;;;;;;;;;;;;;19.83;34.98;101127.35;105466;1297;74047;-89
2023/06/13 10:17:58;;;;;;;;;;;;;;;19.61;35.02;101134.16;105581;1297;67400;-88
2023/06/13 10:20:46;;;;;;;;;;;;;;;19.46;35.28;101131.81;105488;1298;72500;-89
2023/06/13 10:23:38;;;;;;;;;;;;;;;19.47;35.30;101132.68;105451;1298;60106;-89
2023/06/13 10:26:45;;;;;;;;;;;;;;;19.57;35.49;101131.23;105578;1297;60246;-88
2023/06/13 10:29:47;;;;;;;;;;;;;;;19.68;35.41;101125.96;104991;1302;75209;-88
2023/06/13 10:32:33;;;;;;;;;;;;;;;19.66;35.24;101123.95;105078;1303;67538;-89
2023/06/13 10:35:37;;;;;;;;;;;;;;;19.57;35.41;101121.60;105093;1303;71179;-88
2023/06/13 10:38:45;;;;;;;;;;;;;;;19.51;35.48;101121.65;105102;1305;59927;-88
2023/06/13 10:41:43;;;;;;;;;;;;;;;19.52;35.70;101113.27;104997;1303;59910;-88
2023/06/13 10:44:39;;;;;;;;;;;;;;;19.42;35.69;101110.34;104975;1302;74352;-88
2023/06/13 10:47:29;;;;;;;;;;;;;;;19.49;35.99;101111.41;105046;1304;68868;-88
2023/06/13 10:50:17;;;;;;;;;;;;;;;19.58;35.90;101116.28;105007;1303;71416;-88
2023/06/13 10:53:11;;;;;;;;;;;;;;;19.52;35.99;101117.10;104874;1309;59932;-89
2023/06/13 10:55:59;;;;;;;;;;;;;;;19.48;36.04;101117.75;104936;1303;60164;-89
2023/06/13 10:58:45;;;;;;;;;;;;;;;19.38;36.22;101116.83;105007;1303;74941;-87
2023/06/13 11:01:36;;;;;;;;;;;;;;;19.42;36.18;101115.23;104673;1304;66523;-87
2023/06/13 11:04:32;;;;;;;;;;;;;;;19.45;36.27;101115.63;105033;1303;71696;-87
2023/06/13 11:07:22;;;;;;;;;;;;;;;19.47;36.29;101114.11;105394;1300;61118;-87
2023/06/13 11:10:13;;;;;;;;;;;;;;;19.41;36.51;101111.75;105594;1297;59813;-87
2023/06/13 11:13:02;;;;;;;;;;;;;;;19.39;36.52;101110.64;105574;1297;74662;-86
2023/06/13 11:16:08;;;;;;;;;;;;;;;19.39;37.01;101109.23;105444;1297;68029;-87
2023/06/13 11:18:55;;;;;;;;;;;;;;;19.30;36.87;101116.29;105525;1297;71287;-87
2023/06/13 11:21:47;;;;;;;;;;;;;;;19.34;37.09;101111.40;105561;1298;60066;-87
2023/06/13 11:24:35;;;;;;;;;;;;;;;19.44;37.22;101106.92;105542;1297;59658;-87
2023/06/13 11:27:21;;;;;;;;;;;;;;;19.51;37.32;101101.20;105430;1296;73980;-87
2023/06/13 11:30:07;;;;;;;;;;;;;;;19.48;37.29;101099.58;105314;1299;68153;-87
2023/06/13 11:32:56;;;;;;;;;;;;;;;19.44;37.13;101094.48;105392;1297;71875;-88
2023/06/13 11:35:56;;;;;;;;;;;;;;;19.46;37.25;101088.83;105550;1297;60027;-87
2023/06/13 11:38:56;;;;;;;;;;;;;;;19.47;37.72;101088.41;105468;1296;59640;-87
2023/06/13 11:41:43;;;;;;;;;;;;;;;19.53;37.48;101081.19;105435;1297;74218;-86
2023/06/13 11:44:49;;;;;;;;;;;;;;;19.59;37.62;101084.08;105460;1298;66297;-86
2023/06/13 11:47:35;;;;;;;;;;;;;;;19.54;37.59;101082.89;105340;1300;71110;-86
2023/06/13 11:50:25;;;;;;;;;;;;;;;19.55;37.67;101084.09;105489;1297;60424;-86
2023/06/13 11:53:11;;;;;;;;;;;;;;;19.66;37.87;101080.05;105455;1299;60563;-86
2023/06/13 11:56:04;;;;;;;;;;;;;;;19.64;37.77;101079.63;105513;1297;74151;-86
2023/06/13 11:58:52;;;;;;;;;;;;;;;19.56;37.61;101079.65;105407;1297;67482;-86
2023/06/13 12:01:38;;;;;;;;;;;;;;;19.39;37.79;101081.45;105478;1297;72317;-86
2023/06/13 12:04:25;;;;;;;;;;;;;;;19.24;38.11;101079.35;105508;1297;60050;-86
2023/06/13 12:07:13;;;;;;;;;;;;;;;18.98;38.12;101079.61;105501;1297;59912;-86
2023/06/13 12:09:59;;;;;;;;;;;;;;;18.82;38.21;101086.08;105519;1298;75152;-85
2023/06/13 12:12:58;;;;;;;;;;;;;;;18.72;38.32;101088.06;105462;1298;69375;-85
2023/06/13 12:15:45;;;;;;;;;;;;;;;18.68;38.32;101086.16;105348;1296;71751;-86
2023/06/13 12:18:32;;;;;;;;;;;;;;;18.68;38.42;101088.95;105560;1297;59967;-86
2023/06/13 12:21:18;;;;;;;;;;;;;;;18.65;38.45;101088.92;105500;1297;59933;-86
2023/06/13 12:24:06;;;;;;;;;;;;;;;18.67;38.67;101087.60;105445;1297;75305;-86
2023/06/13 12:26:52;;;;;;;;;;;;;;;18.80;38.85;101088.95;105548;1297;68121;-88
2023/06/13 12:29:39;;;;;;;;;;;;;;;18.76;38.82;101091.55;105344;1297;73334;-85
2023/06/13 12:32:25;;;;;;;;;;;;;;;18.71;38.79;101090.60;105462;1296;59705;-85
2023/06/13 12:35:12;;;;;;;;;;;;;;;18.77;38.78;101092.75;105545;1300;60008;-85
2023/06/13 12:38:02;;;;;;;;;;;;;;;18.72;39.01;101094.70;105446;1297;75347;-85
2023/06/13 12:40:51;;;;;;;;;;;;;;;18.73;39.08;101096.25;105566;1297;68275;-86
2023/06/13 12:43:40;;;;;;;;;;;;;;;18.63;39.24;101095.12;105537;1296;71549;-86
2023/06/13 12:46:26;;;;;;;;;;;;;;;18.49;39.55;101098.27;105536;1297;59917;-86
2023/06/13 12:49:13;;;;;;;;;;;;;;;18.32;39.71;101101.76;105568;1296;59927;-86
2023/06/13 12:52:00;;;;;;;;;;;;;;;18.25;39.80;101100.30;105633;1297;75804;-87
2023/06/13 12:54:46;;;;;;;;;;;;;;;18.26;39.95;101099.72;105304;1297;68493;-86
2023/06/13 12:57:33;;;;;;;;;;;;;;;18.31;39.95;101099.17;105361;1297;71912;-85
2023/06/13 13:00:22;;;;;;;;;;;;;;;18.35;39.94;101100.23;105321;1296;59905;-86
2023/06/13 13:03:08;;;;;;;;;;;;;;;18.38;40.07;101101.52;105459;1297;60182;-85
2023/06/13 13:05:55;;;;;;;;;;;;;;;18.41;40.09;101101.04;105415;1297;74329;-85
2023/06/13 13:08:41;;;;;;;;;;;;;;;18.42;40.36;101100.65;105506;1297;69117;-85
2023/06/13 13:11:27;;;;;;;;;;;;;;;18.34;40.29;101096.09;105400;1297;73188;-85
2023/06/13 13:14:13;;;;;;;;;;;;;;;18.33;40.30;101096.30;105454;1296;59703;-85
2023/06/13 13:16:59;;;;;;;;;;;;;;;18.35;40.57;101091.86;105501;1297;59868;-86
2023/06/13 13:19:46;;;;;;;;;;;;;;;18.24;40.46;101091.96;105480;1297;73939;-85
2023/06/13 13:22:33;;;;;;;;;;;;;;;18.13;40.66;101089.30;105484;1297;68542;-85
2023/06/13 13:25:19;;;;;;;;;;;;;;;18.10;40.95;101084.00;105452;1297;72525;-85
2023/06/13 13:28:06;;;;;;;;;;;;;;;18.14;40.73;101082.44;105558;1296;60115;-85
2023/06/13 13:30:51;;;;;;;;;;;;;;;18.14;40.83;101080.52;105490;1297;60553;-85
2023/06/13 13:33:38;;;;;;;;;;;;;;;18.16;40.90;101077.66;105392;1297;73625;-85
2023/06/13 13:36:24;;;;;;;;;;;;;;;18.12;40.96;101081.29;105525;1297;67363;-85
2023/06/13 13:42:56;;;;;;;;;;;;;;;18.00;41.25;101074.80;105605;1297;59943;-85
2023/06/13 13:45:42;;;;;;;;;;;;;;;17.92;41.33;101074.77;105485;1297;59834;-85
2023/06/13 13:48:28;;;;;;;;;;;;;;;17.88;41.55;101077.73;105410;1297;74890;-86
2023/06/13 13:51:14;;;;;;;;;;;;;;;17.96;41.64;101072.19;105372;1296;67610;-86
2023/06/13 13:54:00;;;;;;;;;;;;;;;18.05;41.39;101076.88;105465;1297;72546;-86
2023/06/13 13:56:47;;;;;;;;;;;;;;;18.05;41.56;101074.61;105351;1296;59685;-86
2023/06/13 13:59:32;;;;;;;;;;;;;;;18.09;41.62;101073.23;105556;1296;59949;-85
2023/06/13 14:02:22;;;;;;;;;;;;;;;18.13;41.73;101073.92;105471;1297;73450;-85
2023/06/13 14:05:08;;;;;;;;;;;;;;;18.10;41.81;101070.39;105451;1297;68495;-86
2023/06/13 14:07:55;;;;;;;;;;;;;;;18.07;41.92;101070.36;105455;1296;73421;-86
2023/06/13 14:10:41;;;;;;;;;;;;;;;17.99;42.03;101071.02;105407;1297;60056;-86
2023/06/13 14:13:27;;;;;;;;;;;;;;;17.95;42.20;101075.85;105487;1298;60321;-86